sensor_id;sensor_type;location;lat;lon;timestamp;temperature;humidity
41953;DHT22;63613;28.200;112.870;2023-06-26T00:01:28;27.00;72.30
41953;DHT22;63613;28.200;112.870;2023-06-26T00:03:58;27.10;72.20
41953;DHT22;63613;28.200;112.870;2023-06-26T00:06:25;27.10;72.30
41953;DHT22;63613;28.200;112.870;2023-06-26T00:08:54;27.10;72.30
41953;DHT22;63613;28.200;112.870;2023-06-26T00:11:22;27.10;72.40
41953;DHT22;63613;28.200;112.870;2023-06-26T00:14:09;27.10;72.40
41953;DHT22;63613;28.200;112.870;2023-06-26T00:16:36;27.20;72.40
41953;DHT22;63613;28.200;112.870;2023-06-26T00:19:03;27.20;72.40
41953;DHT22;63613;28.200;112.870;2023-06-26T00:21:30;27.20;72.40
41953;DHT22;63613;28.200;112.870;2023-06-26T00:23:56;27.20;72.60
41953;DHT22;63613;28.200;112.870;2023-06-26T00:26:23;27.20;72.50
41953;DHT22;63613;28.200;112.870;2023-06-26T00:28:50;27.20;72.50
41953;DHT22;63613;28.200;112.870;2023-06-26T00:31:17;27.20;72.50
41953;DHT22;63613;28.200;112.870;2023-06-26T00:33:44;27.20;72.50
41953;DHT22;63613;28.200;112.870;2023-06-26T00:36:11;27.20;72.60
41953;DHT22;63613;28.200;112.870;2023-06-26T00:38:38;27.20;72.60
41953;DHT22;63613;28.200;112.870;2023-06-26T00:41:05;27.20;72.60
41953;DHT22;63613;28.200;112.870;2023-06-26T00:43:38;27.20;72.70
41953;DHT22;63613;28.200;112.870;2023-06-26T00:46:09;27.20;72.90
41953;DHT22;63613;28.200;112.870;2023-06-26T00:48:37;27.30;72.80
41953;DHT22;63613;28.200;112.870;2023-06-26T00:51:04;27.30;72.70
41953;DHT22;63613;28.200;112.870;2023-06-26T00:53:33;27.30;72.60
41953;DHT22;63613;28.200;112.870;2023-06-26T00:56:04;27.30;72.50
41953;DHT22;63613;28.200;112.870;2023-06-26T00:58:31;27.30;72.30
41953;DHT22;63613;28.200;112.870;2023-06-26T01:01:18;27.30;72.40
41953;DHT22;63613;28.200;112.870;2023-06-26T01:03:51;27.40;72.60
41953;DHT22;63613;28.200;112.870;2023-06-26T01:06:20;27.30;72.50
41953;DHT22;63613;28.200;112.870;2023-06-26T01:08:48;27.30;72.40
41953;DHT22;63613;28.200;112.870;2023-06-26T01:11:15;27.30;72.40
41953;DHT22;63613;28.200;112.870;2023-06-26T01:13:43;27.40;72.40
41953;DHT22;63613;28.200;112.870;2023-06-26T01:16:14;27.40;72.50
41953;DHT22;63613;28.200;112.870;2023-06-26T01:18:41;27.50;72.40
41953;DHT22;63613;28.200;112.870;2023-06-26T01:21:18;27.50;72.20
41953;DHT22;63613;28.200;112.870;2023-06-26T01:24:20;27.50;71.90
41953;DHT22;63613;28.200;112.870;2023-06-26T01:26:51;27.60;71.70
41953;DHT22;63613;28.200;112.870;2023-06-26T01:29:19;27.50;71.80
41953;DHT22;63613;28.200;112.870;2023-06-26T01:31:48;27.60;71.90
41953;DHT22;63613;28.200;112.870;2023-06-26T01:34:17;27.60;71.90
41953;DHT22;63613;28.200;112.870;2023-06-26T01:36:46;27.50;72.00
41953;DHT22;63613;28.200;112.870;2023-06-26T01:39:18;27.60;71.80
41953;DHT22;63613;28.200;112.870;2023-06-26T01:41:46;27.70;71.90
41953;DHT22;63613;28.200;112.870;2023-06-26T01:44:34;27.70;71.90
41953;DHT22;63613;28.200;112.870;2023-06-26T01:47:02;27.70;71.80
41953;DHT22;63613;28.200;112.870;2023-06-26T01:49:47;27.70;71.70
41953;DHT22;63613;28.200;112.870;2023-06-26T01:52:43;27.70;71.60
41953;DHT22;63613;28.200;112.870;2023-06-26T01:55:21;27.80;71.50
41953;DHT22;63613;28.200;112.870;2023-06-26T01:57:54;27.70;71.60
41953;DHT22;63613;28.200;112.870;2023-06-26T02:00:23;27.80;71.40
41953;DHT22;63613;28.200;112.870;2023-06-26T02:02:51;27.80;71.20
41953;DHT22;63613;28.200;112.870;2023-06-26T02:05:18;27.80;71.20
41953;DHT22;63613;28.200;112.870;2023-06-26T02:07:45;27.80;71.10
41953;DHT22;63613;28.200;112.870;2023-06-26T02:10:15;27.80;71.00
41953;DHT22;63613;28.200;112.870;2023-06-26T02:12:42;27.80;71.10
41953;DHT22;63613;28.200;112.870;2023-06-26T02:15:09;27.80;71.10
41953;DHT22;63613;28.200;112.870;2023-06-26T02:17:36;27.80;71.00
41953;DHT22;63613;28.200;112.870;2023-06-26T02:20:23;27.80;70.90
41953;DHT22;63613;28.200;112.870;2023-06-26T02:22:49;27.80;70.90
41953;DHT22;63613;28.200;112.870;2023-06-26T02:25:18;27.80;70.90
41953;DHT22;63613;28.200;112.870;2023-06-26T02:27:45;27.80;70.70
41953;DHT22;63613;28.200;112.870;2023-06-26T02:30:12;27.80;70.80
41953;DHT22;63613;28.200;112.870;2023-06-26T02:32:39;27.80;70.70
41953;DHT22;63613;28.200;112.870;2023-06-26T02:35:06;27.90;70.90
41953;DHT22;63613;28.200;112.870;2023-06-26T02:37:53;27.90;71.10
41953;DHT22;63613;28.200;112.870;2023-06-26T02:40:20;27.90;71.10
41953;DHT22;63613;28.200;112.870;2023-06-26T02:42:46;28.00;71.10
41953;DHT22;63613;28.200;112.870;2023-06-26T02:45:13;28.00;71.00
41953;DHT22;63613;28.200;112.870;2023-06-26T02:47:40;27.90;70.90
41953;DHT22;63613;28.200;112.870;2023-06-26T02:50:07;28.00;70.80
41953;DHT22;63613;28.200;112.870;2023-06-26T02:52:34;28.00;70.60
41953;DHT22;63613;28.200;112.870;2023-06-26T02:55:01;28.00;70.50
41953;DHT22;63613;28.200;112.870;2023-06-26T02:57:28;28.00;70.40
41953;DHT22;63613;28.200;112.870;2023-06-26T02:59:54;28.00;70.50
41953;DHT22;63613;28.200;112.870;2023-06-26T03:02:21;28.00;70.40
41953;DHT22;63613;28.200;112.870;2023-06-26T03:04:48;28.10;70.40
41953;DHT22;63613;28.200;112.870;2023-06-26T03:07:16;28.10;70.20
41953;DHT22;63613;28.200;112.870;2023-06-26T03:09:42;28.10;70.10
41953;DHT22;63613;28.200;112.870;2023-06-26T03:12:09;28.20;69.90
41953;DHT22;63613;28.200;112.870;2023-06-26T03:14:36;28.10;69.90
41953;DHT22;63613;28.200;112.870;2023-06-26T03:17:03;28.00;69.90
41953;DHT22;63613;28.200;112.870;2023-06-26T03:19:30;28.00;69.90
41953;DHT22;63613;28.200;112.870;2023-06-26T03:21:57;28.10;69.80
41953;DHT22;63613;28.200;112.870;2023-06-26T03:24:23;28.10;69.80
41953;DHT22;63613;28.200;112.870;2023-06-26T03:26:50;28.10;69.90
41953;DHT22;63613;28.200;112.870;2023-06-26T03:29:17;28.20;69.80
41953;DHT22;63613;28.200;112.870;2023-06-26T03:31:44;28.20;69.60
41953;DHT22;63613;28.200;112.870;2023-06-26T03:34:11;28.20;69.50
41953;DHT22;63613;28.200;112.870;2023-06-26T03:36:38;28.20;69.40
41953;DHT22;63613;28.200;112.870;2023-06-26T03:39:04;28.20;69.30
41953;DHT22;63613;28.200;112.870;2023-06-26T03:41:31;28.20;69.20
41953;DHT22;63613;28.200;112.870;2023-06-26T03:43:58;28.30;69.20
41953;DHT22;63613;28.200;112.870;2023-06-26T03:46:26;28.20;69.20
41953;DHT22;63613;28.200;112.870;2023-06-26T03:48:53;28.20;69.10
41953;DHT22;63613;28.200;112.870;2023-06-26T03:51:20;28.20;68.90
41953;DHT22;63613;28.200;112.870;2023-06-26T03:53:47;28.30;68.80
41953;DHT22;63613;28.200;112.870;2023-06-26T03:56:13;28.30;68.70
41953;DHT22;63613;28.200;112.870;2023-06-26T03:58:40;28.40;68.60
41953;DHT22;63613;28.200;112.870;2023-06-26T04:01:09;28.40;68.50
41953;DHT22;63613;28.200;112.870;2023-06-26T04:03:36;28.30;68.40
41953;DHT22;63613;28.200;112.870;2023-06-26T04:06:02;28.30;68.30
41953;DHT22;63613;28.200;112.870;2023-06-26T04:08:29;28.40;68.30
41953;DHT22;63613;28.200;112.870;2023-06-26T04:10:56;28.40;68.30
41953;DHT22;63613;28.200;112.870;2023-06-26T04:13:25;28.40;68.40
41953;DHT22;63613;28.200;112.870;2023-06-26T04:15:51;28.40;68.50
41953;DHT22;63613;28.200;112.870;2023-06-26T04:18:38;28.40;68.60
41953;DHT22;63613;28.200;112.870;2023-06-26T04:21:10;28.40;68.70
41953;DHT22;63613;28.200;112.870;2023-06-26T04:23:41;28.40;68.60
41953;DHT22;63613;28.200;112.870;2023-06-26T04:26:08;28.50;68.70
41953;DHT22;63613;28.200;112.870;2023-06-26T04:28:36;28.50;68.60
41953;DHT22;63613;28.200;112.870;2023-06-26T04:31:04;28.60;68.50
41953;DHT22;63613;28.200;112.870;2023-06-26T04:33:31;28.50;68.40
41953;DHT22;63613;28.200;112.870;2023-06-26T04:35:57;28.50;68.40
41953;DHT22;63613;28.200;112.870;2023-06-26T04:38:25;28.50;68.40
41953;DHT22;63613;28.200;112.870;2023-06-26T04:40:52;28.50;68.30
41953;DHT22;63613;28.200;112.870;2023-06-26T04:43:19;28.60;68.20
41953;DHT22;63613;28.200;112.870;2023-06-26T04:45:46;28.60;68.20
41953;DHT22;63613;28.200;112.870;2023-06-26T04:48:13;28.60;68.10
41953;DHT22;63613;28.200;112.870;2023-06-26T04:50:41;28.60;68.30
41953;DHT22;63613;28.200;112.870;2023-06-26T04:53:08;28.50;68.70
41953;DHT22;63613;28.200;112.870;2023-06-26T04:55:35;28.60;69.00
41953;DHT22;63613;28.200;112.870;2023-06-26T04:58:03;28.70;69.10
41953;DHT22;63613;28.200;112.870;2023-06-26T05:00:29;28.70;69.10
41953;DHT22;63613;28.200;112.870;2023-06-26T05:02:57;28.70;68.90
41953;DHT22;63613;28.200;112.870;2023-06-26T05:05:29;28.80;68.80
41953;DHT22;63613;28.200;112.870;2023-06-26T05:07:56;28.70;68.70
41953;DHT22;63613;28.200;112.870;2023-06-26T05:10:26;28.80;68.50
41953;DHT22;63613;28.200;112.870;2023-06-26T05:12:56;28.80;68.50
41953;DHT22;63613;28.200;112.870;2023-06-26T05:15:24;28.80;68.30
41953;DHT22;63613;28.200;112.870;2023-06-26T05:17:54;28.80;68.50
41953;DHT22;63613;28.200;112.870;2023-06-26T05:20:20;28.90;68.70
41953;DHT22;63613;28.200;112.870;2023-06-26T05:22:47;28.90;68.80
41953;DHT22;63613;28.200;112.870;2023-06-26T05:25:15;28.90;68.80
41953;DHT22;63613;28.200;112.870;2023-06-26T05:27:47;28.90;68.60
41953;DHT22;63613;28.200;112.870;2023-06-26T05:30:14;28.90;68.70
41953;DHT22;63613;28.200;112.870;2023-06-26T05:32:42;28.90;68.60
41953;DHT22;63613;28.200;112.870;2023-06-26T05:35:14;29.00;68.30
41953;DHT22;63613;28.200;112.870;2023-06-26T05:37:42;29.00;68.30
41953;DHT22;63613;28.200;112.870;2023-06-26T05:40:10;29.00;68.30
41953;DHT22;63613;28.200;112.870;2023-06-26T05:42:59;28.90;68.30
41953;DHT22;63613;28.200;112.870;2023-06-26T05:45:26;28.90;68.30
41953;DHT22;63613;28.200;112.870;2023-06-26T05:47:53;29.10;67.90
41953;DHT22;63613;28.200;112.870;2023-06-26T05:50:21;29.00;67.80
41953;DHT22;63613;28.200;112.870;2023-06-26T05:52:50;29.10;67.90
41953;DHT22;63613;28.200;112.870;2023-06-26T05:55:17;29.00;67.80
41953;DHT22;63613;28.200;112.870;2023-06-26T05:57:46;29.00;67.70
41953;DHT22;63613;28.200;112.870;2023-06-26T06:00:33;29.10;67.80
41953;DHT22;63613;28.200;112.870;2023-06-26T06:03:00;29.10;67.80
41953;DHT22;63613;28.200;112.870;2023-06-26T06:05:27;29.10;67.80
41953;DHT22;63613;28.200;112.870;2023-06-26T06:07:54;29.00;68.00
41953;DHT22;63613;28.200;112.870;2023-06-26T06:10:22;29.00;68.00
41953;DHT22;63613;28.200;112.870;2023-06-26T06:12:53;29.10;68.00
41953;DHT22;63613;28.200;112.870;2023-06-26T06:15:20;29.10;67.90
41953;DHT22;63613;28.200;112.870;2023-06-26T06:17:47;29.00;67.70
41953;DHT22;63613;28.200;112.870;2023-06-26T06:20:14;29.10;67.70
41953;DHT22;63613;28.200;112.870;2023-06-26T06:22:41;29.10;67.80
41953;DHT22;63613;28.200;112.870;2023-06-26T06:25:08;29.00;67.70
41953;DHT22;63613;28.200;112.870;2023-06-26T06:27:35;29.10;67.70
41953;DHT22;63613;28.200;112.870;2023-06-26T06:30:05;29.00;67.70
41953;DHT22;63613;28.200;112.870;2023-06-26T06:32:32;29.10;67.70
41953;DHT22;63613;28.200;112.870;2023-06-26T06:34:59;29.00;67.80
41953;DHT22;63613;28.200;112.870;2023-06-26T06:37:30;29.00;67.90
41953;DHT22;63613;28.200;112.870;2023-06-26T06:39:58;29.00;67.90
41953;DHT22;63613;28.200;112.870;2023-06-26T06:42:25;29.00;67.80
41953;DHT22;63613;28.200;112.870;2023-06-26T06:44:52;29.00;67.60
41953;DHT22;63613;28.200;112.870;2023-06-26T06:47:20;29.00;67.70
41953;DHT22;63613;28.200;112.870;2023-06-26T06:49:47;29.10;67.60
41953;DHT22;63613;28.200;112.870;2023-06-26T06:52:14;29.00;67.60
41953;DHT22;63613;28.200;112.870;2023-06-26T06:54:57;29.00;67.80
41953;DHT22;63613;28.200;112.870;2023-06-26T06:57:33;29.00;67.80
41953;DHT22;63613;28.200;112.870;2023-06-26T07:00:09;29.10;67.80
41953;DHT22;63613;28.200;112.870;2023-06-26T07:02:42;29.00;68.00
41953;DHT22;63613;28.200;112.870;2023-06-26T07:05:18;29.00;68.30
41953;DHT22;63613;28.200;112.870;2023-06-26T07:07:47;29.00;68.40
41953;DHT22;63613;28.200;112.870;2023-06-26T07:10:14;29.00;68.30
41953;DHT22;63613;28.200;112.870;2023-06-26T07:12:41;29.00;68.30
41953;DHT22;63613;28.200;112.870;2023-06-26T07:15:11;29.00;68.50
41953;DHT22;63613;28.200;112.870;2023-06-26T07:17:38;29.00;68.60
41953;DHT22;63613;28.200;112.870;2023-06-26T07:20:11;29.00;68.50
41953;DHT22;63613;28.200;112.870;2023-06-26T07:22:42;28.90;68.40
41953;DHT22;63613;28.200;112.870;2023-06-26T07:25:11;29.00;68.20
41953;DHT22;63613;28.200;112.870;2023-06-26T07:27:38;29.00;68.10
41953;DHT22;63613;28.200;112.870;2023-06-26T07:30:07;29.00;67.90
41953;DHT22;63613;28.200;112.870;2023-06-26T07:32:37;28.90;67.80
41953;DHT22;63613;28.200;112.870;2023-06-26T07:35:05;29.00;67.70
41953;DHT22;63613;28.200;112.870;2023-06-26T07:37:32;29.00;67.50
41953;DHT22;63613;28.200;112.870;2023-06-26T07:40:19;28.90;67.50
41953;DHT22;63613;28.200;112.870;2023-06-26T07:42:45;29.00;67.40
41953;DHT22;63613;28.200;112.870;2023-06-26T07:45:12;29.00;67.30
41953;DHT22;63613;28.200;112.870;2023-06-26T07:47:40;29.00;67.20
41953;DHT22;63613;28.200;112.870;2023-06-26T07:50:07;29.00;67.30
41953;DHT22;63613;28.200;112.870;2023-06-26T07:52:34;29.00;67.30
41953;DHT22;63613;28.200;112.870;2023-06-26T07:55:01;29.00;67.30
41953;DHT22;63613;28.200;112.870;2023-06-26T07:57:29;29.00;67.50
41953;DHT22;63613;28.200;112.870;2023-06-26T07:59:58;28.90;67.70
41953;DHT22;63613;28.200;112.870;2023-06-26T08:02:27;29.00;67.70
41953;DHT22;63613;28.200;112.870;2023-06-26T08:04:55;28.90;67.60
41953;DHT22;63613;28.200;112.870;2023-06-26T08:07:22;29.00;67.50
41953;DHT22;63613;28.200;112.870;2023-06-26T08:10:09;29.00;67.50
41953;DHT22;63613;28.200;112.870;2023-06-26T08:12:39;29.00;67.40
41953;DHT22;63613;28.200;112.870;2023-06-26T08:15:17;29.00;67.30
41953;DHT22;63613;28.200;112.870;2023-06-26T08:17:45;29.00;67.30
41953;DHT22;63613;28.200;112.870;2023-06-26T08:20:16;29.00;67.20
41953;DHT22;63613;28.200;112.870;2023-06-26T08:22:46;29.00;67.10
41953;DHT22;63613;28.200;112.870;2023-06-26T08:25:18;29.00;67.00
41953;DHT22;63613;28.200;112.870;2023-06-26T08:27:46;29.00;66.90
41953;DHT22;63613;28.200;112.870;2023-06-26T08:30:33;29.00;66.90
41953;DHT22;63613;28.200;112.870;2023-06-26T08:33:00;28.90;66.90
41953;DHT22;63613;28.200;112.870;2023-06-26T08:35:28;29.00;66.90
41953;DHT22;63613;28.200;112.870;2023-06-26T08:37:55;29.00;66.80
41953;DHT22;63613;28.200;112.870;2023-06-26T08:40:22;29.00;66.70
41953;DHT22;63613;28.200;112.870;2023-06-26T08:42:49;29.00;66.70
41953;DHT22;63613;28.200;112.870;2023-06-26T08:45:19;29.00;66.60
41953;DHT22;63613;28.200;112.870;2023-06-26T08:47:48;29.00;66.60
41953;DHT22;63613;28.200;112.870;2023-06-26T08:50:23;28.90;66.60
41953;DHT22;63613;28.200;112.870;2023-06-26T08:53:04;28.90;66.60
41953;DHT22;63613;28.200;112.870;2023-06-26T08:55:36;28.90;66.70
41953;DHT22;63613;28.200;112.870;2023-06-26T08:58:04;28.90;66.80
41953;DHT22;63613;28.200;112.870;2023-06-26T09:00:31;28.90;66.80
41953;DHT22;63613;28.200;112.870;2023-06-26T09:02:59;28.90;66.80
41953;DHT22;63613;28.200;112.870;2023-06-26T09:05:27;28.90;66.80
41953;DHT22;63613;28.200;112.870;2023-06-26T09:07:54;28.90;66.80
41953;DHT22;63613;28.200;112.870;2023-06-26T09:10:24;28.90;66.80
41953;DHT22;63613;28.200;112.870;2023-06-26T09:12:56;28.80;66.90
41953;DHT22;63613;28.200;112.870;2023-06-26T09:15:24;28.90;66.90
41953;DHT22;63613;28.200;112.870;2023-06-26T09:17:56;28.90;66.90
41953;DHT22;63613;28.200;112.870;2023-06-26T09:20:25;28.80;66.90
41953;DHT22;63613;28.200;112.870;2023-06-26T09:22:53;28.90;66.90
41953;DHT22;63613;28.200;112.870;2023-06-26T09:25:22;28.80;67.00
41953;DHT22;63613;28.200;112.870;2023-06-26T09:27:49;28.80;67.10
41953;DHT22;63613;28.200;112.870;2023-06-26T09:30:19;28.80;67.10
41953;DHT22;63613;28.200;112.870;2023-06-26T09:32:46;28.80;67.10
41953;DHT22;63613;28.200;112.870;2023-06-26T09:35:33;28.80;67.10
41953;DHT22;63613;28.200;112.870;2023-06-26T09:38:01;28.80;67.10
41953;DHT22;63613;28.200;112.870;2023-06-26T09:40:28;28.80;67.10
41953;DHT22;63613;28.200;112.870;2023-06-26T09:45:49;28.80;67.40
41953;DHT22;63613;28.200;112.870;2023-06-26T09:48:16;28.80;67.40
41953;DHT22;63613;28.200;112.870;2023-06-26T09:50:43;28.80;67.40
41953;DHT22;63613;28.200;112.870;2023-06-26T09:53:11;28.70;67.80
41953;DHT22;63613;28.200;112.870;2023-06-26T09:55:43;28.80;67.80
41953;DHT22;63613;28.200;112.870;2023-06-26T09:58:13;28.80;67.80
41953;DHT22;63613;28.200;112.870;2023-06-26T10:00:46;28.80;67.80
41953;DHT22;63613;28.200;112.870;2023-06-26T10:03:14;28.70;67.80
41953;DHT22;63613;28.200;112.870;2023-06-26T10:05:41;28.70;67.80
41953;DHT22;63613;28.200;112.870;2023-06-26T10:08:13;28.70;67.80
41953;DHT22;63613;28.200;112.870;2023-06-26T10:10:41;28.70;67.90
41953;DHT22;63613;28.200;112.870;2023-06-26T10:13:14;28.70;68.10
41953;DHT22;63613;28.200;112.870;2023-06-26T10:15:44;28.70;68.20
41953;DHT22;63613;28.200;112.870;2023-06-26T10:18:14;28.70;68.50
41953;DHT22;63613;28.200;112.870;2023-06-26T10:20:43;28.70;68.60
41953;DHT22;63613;28.200;112.870;2023-06-26T10:23:12;28.70;68.70
41953;DHT22;63613;28.200;112.870;2023-06-26T10:26:03;28.70;68.80
41953;DHT22;63613;28.200;112.870;2023-06-26T10:28:32;28.70;68.80
41953;DHT22;63613;28.200;112.870;2023-06-26T10:31:01;28.60;69.00
41953;DHT22;63613;28.200;112.870;2023-06-26T10:33:30;28.60;69.00
41953;DHT22;63613;28.200;112.870;2023-06-26T10:36:16;28.60;69.00
41953;DHT22;63613;28.200;112.870;2023-06-26T10:38:59;28.70;69.00
41953;DHT22;63613;28.200;112.870;2023-06-26T10:41:39;28.60;69.10
41953;DHT22;63613;28.200;112.870;2023-06-26T10:44:10;28.60;69.00
41953;DHT22;63613;28.200;112.870;2023-06-26T10:46:53;28.50;69.00
41953;DHT22;63613;28.200;112.870;2023-06-26T10:49:26;28.60;69.10
41953;DHT22;63613;28.200;112.870;2023-06-26T10:51:54;28.50;69.00
41953;DHT22;63613;28.200;112.870;2023-06-26T10:54:27;28.50;69.00
41953;DHT22;63613;28.200;112.870;2023-06-26T10:56:55;28.50;69.00
41953;DHT22;63613;28.200;112.870;2023-06-26T10:59:26;28.50;69.00
41953;DHT22;63613;28.200;112.870;2023-06-26T11:02:01;28.50;69.00
41953;DHT22;63613;28.200;112.870;2023-06-26T11:04:43;28.50;68.90
41953;DHT22;63613;28.200;112.870;2023-06-26T11:07:20;28.40;69.00
41953;DHT22;63613;28.200;112.870;2023-06-26T11:10:08;28.40;69.10
41953;DHT22;63613;28.200;112.870;2023-06-26T11:15:16;28.40;69.20
41953;DHT22;63613;28.200;112.870;2023-06-26T11:17:44;28.40;69.40
41953;DHT22;63613;28.200;112.870;2023-06-26T11:20:13;28.30;69.40
41953;DHT22;63613;28.200;112.870;2023-06-26T11:22:41;28.30;69.30
41953;DHT22;63613;28.200;112.870;2023-06-26T11:25:10;28.30;69.30
41953;DHT22;63613;28.200;112.870;2023-06-26T11:27:44;28.30;69.40
41953;DHT22;63613;28.200;112.870;2023-06-26T11:30:22;28.30;69.50
41953;DHT22;63613;28.200;112.870;2023-06-26T11:32:52;28.30;69.60
41953;DHT22;63613;28.200;112.870;2023-06-26T11:35:39;28.30;69.90
41953;DHT22;63613;28.200;112.870;2023-06-26T11:38:06;28.20;69.90
41953;DHT22;63613;28.200;112.870;2023-06-26T11:40:36;28.30;70.20
41953;DHT22;63613;28.200;112.870;2023-06-26T11:43:04;28.20;70.20
41953;DHT22;63613;28.200;112.870;2023-06-26T11:45:32;28.20;70.50
41953;DHT22;63613;28.200;112.870;2023-06-26T11:48:19;28.20;70.50
41953;DHT22;63613;28.200;112.870;2023-06-26T11:50:46;28.20;70.70
41953;DHT22;63613;28.200;112.870;2023-06-26T11:53:16;28.20;70.90
41953;DHT22;63613;28.200;112.870;2023-06-26T11:56:07;28.20;71.00
41953;DHT22;63613;28.200;112.870;2023-06-26T11:58:56;28.20;71.00
41953;DHT22;63613;28.200;112.870;2023-06-26T12:01:24;28.20;71.00
41953;DHT22;63613;28.200;112.870;2023-06-26T12:04:14;28.20;71.00
41953;DHT22;63613;28.200;112.870;2023-06-26T12:06:46;28.20;71.20
41953;DHT22;63613;28.200;112.870;2023-06-26T12:09:15;28.20;71.20
41953;DHT22;63613;28.200;112.870;2023-06-26T12:11:44;28.20;71.40
41953;DHT22;63613;28.200;112.870;2023-06-26T12:14:15;28.20;71.50
41953;DHT22;63613;28.200;112.870;2023-06-26T12:16:42;28.20;71.30
41953;DHT22;63613;28.200;112.870;2023-06-26T12:19:31;28.20;71.30
41953;DHT22;63613;28.200;112.870;2023-06-26T12:21:59;28.20;71.20
41953;DHT22;63613;28.200;112.870;2023-06-26T12:24:29;28.10;71.30
41953;DHT22;63613;28.200;112.870;2023-06-26T12:26:57;28.10;71.20
41953;DHT22;63613;28.200;112.870;2023-06-26T12:29:32;28.10;71.20
41953;DHT22;63613;28.200;112.870;2023-06-26T12:32:00;28.10;71.30
41953;DHT22;63613;28.200;112.870;2023-06-26T12:34:30;28.10;71.30
41953;DHT22;63613;28.200;112.870;2023-06-26T12:39:48;28.10;71.60
41953;DHT22;63613;28.200;112.870;2023-06-26T12:42:22;28.10;71.60
41953;DHT22;63613;28.200;112.870;2023-06-26T12:44:50;28.10;71.70
41953;DHT22;63613;28.200;112.870;2023-06-26T12:47:19;28.10;71.70
41953;DHT22;63613;28.200;112.870;2023-06-26T12:49:55;28.10;72.00
41953;DHT22;63613;28.200;112.870;2023-06-26T12:52:23;28.10;71.80
41953;DHT22;63613;28.200;112.870;2023-06-26T12:54:54;28.00;71.70
41953;DHT22;63613;28.200;112.870;2023-06-26T12:57:22;28.00;71.80
41953;DHT22;63613;28.200;112.870;2023-06-26T12:59:49;28.10;71.90
41953;DHT22;63613;28.200;112.870;2023-06-26T13:02:16;28.10;72.20
41953;DHT22;63613;28.200;112.870;2023-06-26T13:04:43;28.00;72.30
41953;DHT22;63613;28.200;112.870;2023-06-26T13:07:12;28.00;72.50
41953;DHT22;63613;28.200;112.870;2023-06-26T13:09:39;28.10;72.60
41953;DHT22;63613;28.200;112.870;2023-06-26T13:12:07;28.00;72.90
41953;DHT22;63613;28.200;112.870;2023-06-26T13:14:34;28.00;72.90
41953;DHT22;63613;28.200;112.870;2023-06-26T13:17:01;28.00;73.10
41953;DHT22;63613;28.200;112.870;2023-06-26T13:19:28;28.10;73.00
41953;DHT22;63613;28.200;112.870;2023-06-26T13:21:57;28.00;73.00
41953;DHT22;63613;28.200;112.870;2023-06-26T13:24:24;28.00;72.90
41953;DHT22;63613;28.200;112.870;2023-06-26T13:26:51;28.00;72.80
41953;DHT22;63613;28.200;112.870;2023-06-26T13:29:18;28.00;72.70
41953;DHT22;63613;28.200;112.870;2023-06-26T13:31:49;28.00;72.60
41953;DHT22;63613;28.200;112.870;2023-06-26T13:34:23;28.00;72.40
41953;DHT22;63613;28.200;112.870;2023-06-26T13:36:52;28.10;72.40
41953;DHT22;63613;28.200;112.870;2023-06-26T13:39:19;28.00;72.20
41953;DHT22;63613;28.200;112.870;2023-06-26T13:41:46;28.00;72.20
41953;DHT22;63613;28.200;112.870;2023-06-26T13:44:33;28.00;71.90
41953;DHT22;63613;28.200;112.870;2023-06-26T13:47:00;28.00;71.70
41953;DHT22;63613;28.200;112.870;2023-06-26T13:49:29;28.00;71.60
41953;DHT22;63613;28.200;112.870;2023-06-26T13:52:01;28.00;71.60
41953;DHT22;63613;28.200;112.870;2023-06-26T13:54:27;28.00;71.60
41953;DHT22;63613;28.200;112.870;2023-06-26T13:56:54;28.00;71.50
41953;DHT22;63613;28.200;112.870;2023-06-26T13:59:25;28.00;71.50
41953;DHT22;63613;28.200;112.870;2023-06-26T14:01:51;28.00;71.60
41953;DHT22;63613;28.200;112.870;2023-06-26T14:04:18;28.00;71.60
41953;DHT22;63613;28.200;112.870;2023-06-26T14:06:46;28.00;71.70
41953;DHT22;63613;28.200;112.870;2023-06-26T14:09:13;28.00;71.60
41953;DHT22;63613;28.200;112.870;2023-06-26T14:11:41;28.00;71.70
41953;DHT22;63613;28.200;112.870;2023-06-26T14:14:11;28.00;71.80
41953;DHT22;63613;28.200;112.870;2023-06-26T14:16:38;28.00;71.90
41953;DHT22;63613;28.200;112.870;2023-06-26T14:19:08;28.00;72.10
41953;DHT22;63613;28.200;112.870;2023-06-26T14:21:41;28.00;72.20
41953;DHT22;63613;28.200;112.870;2023-06-26T14:24:08;28.00;72.20
41953;DHT22;63613;28.200;112.870;2023-06-26T14:26:35;28.00;72.30
41953;DHT22;63613;28.200;112.870;2023-06-26T14:29:03;28.00;72.20
41953;DHT22;63613;28.200;112.870;2023-06-26T14:31:30;28.00;72.20
41953;DHT22;63613;28.200;112.870;2023-06-26T14:33:57;28.00;72.40
41953;DHT22;63613;28.200;112.870;2023-06-26T14:36:25;28.00;72.40
41953;DHT22;63613;28.200;112.870;2023-06-26T14:38:53;28.00;72.60
41953;DHT22;63613;28.200;112.870;2023-06-26T14:41:21;28.00;72.50
41953;DHT22;63613;28.200;112.870;2023-06-26T14:43:50;28.00;72.60
41953;DHT22;63613;28.200;112.870;2023-06-26T14:46:18;28.00;72.60
41953;DHT22;63613;28.200;112.870;2023-06-26T14:48:47;28.00;72.50
41953;DHT22;63613;28.200;112.870;2023-06-26T14:51:14;28.00;72.40
41953;DHT22;63613;28.200;112.870;2023-06-26T14:53:42;28.00;72.30
41953;DHT22;63613;28.200;112.870;2023-06-26T14:56:12;28.00;72.30
41953;DHT22;63613;28.200;112.870;2023-06-26T14:58:39;28.00;72.30
41953;DHT22;63613;28.200;112.870;2023-06-26T15:01:07;28.00;72.40
41953;DHT22;63613;28.200;112.870;2023-06-26T15:03:35;28.00;72.40
41953;DHT22;63613;28.200;112.870;2023-06-26T15:06:03;28.00;72.30
41953;DHT22;63613;28.200;112.870;2023-06-26T15:08:31;28.00;72.20
41953;DHT22;63613;28.200;112.870;2023-06-26T15:11:01;28.00;72.20
41953;DHT22;63613;28.200;112.870;2023-06-26T15:13:31;28.00;72.20
41953;DHT22;63613;28.200;112.870;2023-06-26T15:16:04;28.00;72.30
41953;DHT22;63613;28.200;112.870;2023-06-26T15:18:31;28.00;72.50
41953;DHT22;63613;28.200;112.870;2023-06-26T15:20:58;28.00;72.50
41953;DHT22;63613;28.200;112.870;2023-06-26T15:23:29;28.00;72.60
41953;DHT22;63613;28.200;112.870;2023-06-26T15:25:57;28.00;72.50
41953;DHT22;63613;28.200;112.870;2023-06-26T15:28:24;28.00;72.50